Time;durP1;ratioP1;P1;durP2;ratioP2;P2;SDS_P1;SDS_P2;PMS_P1;PMS_P2;Temp;Humidity;BMP_temperature;BMP_pressure;BME280_temperature;BME280_humidity;BME280_pressure;Samples;Min_cycle;Max_cycle;Signal;HPM_P1;HPM_P2
2023/07/31 00:01:12;;;;;;;21.13;10.68;;;;;;;15.41;100.00;100971.44;6128579;23;20445;-69
2023/07/31 00:03:40;;;;;;;21.05;10.68;;;;;;;15.40;100.00;100971.47;6104008;23;20100;-69
2023/07/31 00:06:05;;;;;;;21.08;10.65;;;;;;;15.43;100.00;100968.75;6129960;23;20344;-70
2023/07/31 00:08:33;;;;;;;25.00;11.05;;;;;;;15.36;100.00;100964.56;6105049;23;20006;-69
2023/07/31 00:10:58;;;;;;;22.45;10.27;;;;;;;15.39;100.00;100972.41;6153721;23;20016;-69
2023/07/31 00:13:24;;;;;;;20.63;11.40;;;;;;;15.39;100.00;100973.25;6129419;23;20021;-69
2023/07/31 00:15:49;;;;;;;21.02;10.68;;;;;;;15.40;100.00;100974.09;6104905;23;20459;-69
2023/07/31 00:18:15;;;;;;;19.83;10.45;;;;;;;15.39;100.00;100969.75;6128560;23;20009;-69
2023/07/31 00:20:41;;;;;;;23.05;10.40;;;;;;;15.37;100.00;100964.53;6129206;23;20317;-70
2023/07/31 00:23:06;;;;;;;21.85;10.30;;;;;;;15.38;100.00;100975.94;6129539;23;20010;-70
2023/07/31 00:25:31;;;;;;;17.92;9.77;;;;;;;15.36;100.00;100969.84;6129578;23;20006;-70
2023/07/31 00:27:57;;;;;;;20.83;9.50;;;;;;;15.35;100.00;100966.34;6129289;23;20014;-70
2023/07/31 00:30:25;;;;;;;19.30;9.38;;;;;;;15.36;100.00;100969.84;6128270;23;20009;-70
2023/07/31 00:32:50;;;;;;;19.05;9.52;;;;;;;15.33;100.00;100970.81;6104984;23;20112;-70
2023/07/31 00:35:16;;;;;;;21.55;8.68;;;;;;;15.35;100.00;100976.91;6153901;23;20436;-70
2023/07/31 00:37:41;;;;;;;20.33;9.65;;;;;;;15.35;100.00;100966.34;6128979;23;20391;-70
2023/07/31 00:40:07;;;;;;;19.05;8.52;;;;;;;15.34;100.00;100964.63;6152842;23;20018;-70
2023/07/31 00:42:33;;;;;;;22.42;8.90;;;;;;;15.32;100.00;100955.00;6129398;23;20016;-70
2023/07/31 00:44:58;;;;;;;19.17;8.23;;;;;;;15.34;100.00;100963.75;6105117;23;20336;-70
2023/07/31 00:47:24;;;;;;;22.40;8.10;;;;;;;15.34;100.00;100963.75;6127757;23;20525;-70
2023/07/31 00:49:50;;;;;;;22.83;9.13;;;;;;;15.34;100.00;100955.81;6129194;23;20475;-70
2023/07/31 00:52:16;;;;;;;19.88;8.55;;;;;;;15.32;100.00;100955.88;6129221;23;20029;-70
2023/07/31 00:54:42;;;;;;;19.88;8.60;;;;;;;15.33;100.00;100956.72;6129292;23;20033;-70
2023/07/31 00:57:08;;;;;;;15.23;8.07;;;;;;;15.33;100.00;100954.97;6153863;23;20141;-70
2023/07/31 00:59:34;;;;;;;19.05;8.35;;;;;;;15.32;100.00;100944.44;6153961;23;20009;-70
2023/07/31 01:02:00;;;;;;;19.83;8.60;;;;;;;15.31;100.00;100948.84;6128353;23;20014;-69
2023/07/31 01:04:26;;;;;;;18.55;8.85;;;;;;;15.31;100.00;100943.56;6104134;23;20343;-69
2023/07/31 01:07:12;;;;;;;18.10;8.05;;;;;;;15.36;100.00;100946.09;6129277;23;20348;-69
2023/07/31 01:09:47;;;;;;;22.40;8.27;;;;;;;15.35;100.00;100942.56;6153180;23;20002;-69
2023/07/31 01:12:15;;;;;;;18.52;7.95;;;;;;;15.35;100.00;100941.72;6152727;23;20033;-69
2023/07/31 01:14:40;;;;;;;20.35;7.65;;;;;;;15.35;100.00;100939.06;6153668;23;20335;-70
2023/07/31 01:17:06;;;;;;;16.48;7.32;;;;;;;15.36;100.00;100938.19;6127619;23;20005;-70
2023/07/31 01:19:31;;;;;;;20.85;8.38;;;;;;;15.36;100.00;100941.66;6103784;23;20016;-70
2023/07/31 01:22:31;;;;;;;16.38;6.93;;;;;;;15.39;100.00;100935.44;6127811;23;20487;-70
2023/07/31 01:25:00;;;;;;;18.80;7.47;;;;;;;15.37;100.00;100932.84;6093120;23;20009;-70
2023/07/31 01:27:30;;;;;;;18.33;6.85;;;;;;;15.37;100.00;100934.59;6152447;23;20244;-70
2023/07/31 01:30:10;;;;;;;18.42;7.18;;;;;;;15.37;100.00;100939.88;6152624;23;20085;-70
2023/07/31 01:32:40;;;;;;;14.70;6.43;;;;;;;15.38;100.00;100936.34;6151819;23;20005;-70
2023/07/31 01:35:06;;;;;;;16.55;7.55;;;;;;;15.36;100.00;100943.44;6152371;23;20009;-70
2023/07/31 01:37:31;;;;;;;15.77;7.05;;;;;;;15.38;100.00;100944.25;6128441;23;20024;-70
2023/07/31 01:39:57;;;;;;;17.08;6.90;;;;;;;15.35;100.00;100942.56;6128797;23;20009;-70
2023/07/31 01:42:22;;;;;;;15.38;7.57;;;;;;;15.34;100.00;100938.22;6102542;23;20093;-70
2023/07/31 01:44:47;;;;;;;14.65;6.53;;;;;;;15.35;100.00;100936.44;6103365;23;20362;-70
2023/07/31 01:47:13;;;;;;;16.30;6.75;;;;;;;15.35;100.00;100928.50;6125067;23;20459;-70
2023/07/31 01:49:38;;;;;;;16.30;6.78;;;;;;;15.34;100.00;100926.78;6103511;23;20006;-70
2023/07/31 01:52:04;;;;;;;16.23;7.60;;;;;;;15.35;100.00;100931.16;6126837;23;20010;-70
2023/07/31 01:54:30;;;;;;;19.20;7.20;;;;;;;15.30;100.00;100931.31;6103553;23;20009;-70
2023/07/31 01:56:58;;;;;;;15.20;7.15;;;;;;;15.30;100.00;100927.78;6152233;23;20343;-70
2023/07/31 01:59:23;;;;;;;16.60;6.93;;;;;;;15.28;100.00;100922.53;6104683;23;20020;-70
2023/07/31 02:01:49;;;;;;;20.75;7.07;;;;;;;15.26;100.00;100929.66;6127055;23;20088;-70
2023/07/31 02:04:14;;;;;;;16.17;6.80;;;;;;;15.27;100.00;100925.22;6101537;23;20009;-70
2023/07/31 02:06:39;;;;;;;15.93;7.28;;;;;;;15.22;100.00;100923.59;6102853;23;20013;-70
2023/07/31 02:09:05;;;;;;;17.42;7.30;;;;;;;15.22;100.00;100926.22;6152920;23;20331;-70
2023/07/31 02:11:30;;;;;;;17.25;7.45;;;;;;;15.22;100.00;100923.59;6103976;23;20009;-69
2023/07/31 02:13:56;;;;;;;16.52;6.95;;;;;;;15.19;100.00;100915.75;6127609;23;20017;-69
2023/07/31 02:16:21;;;;;;;14.75;7.53;;;;;;;15.19;100.00;100913.13;6152201;23;20013;-69
2023/07/31 02:18:47;;;;;;;13.68;6.72;;;;;;;15.16;100.00;100907.94;6126297;23;20010;-68
2023/07/31 02:21:13;;;;;;;13.48;6.70;;;;;;;15.15;100.00;100906.19;6103683;23;20467;-70
2023/07/31 02:23:38;;;;;;;17.27;7.03;;;;;;;15.15;100.00;100897.44;6127961;23;20067;-70
2023/07/31 02:26:04;;;;;;;17.52;7.18;;;;;;;15.13;100.00;100897.47;6128213;23;20017;-70
2023/07/31 02:28:29;;;;;;;18.95;7.38;;;;;;;15.12;100.00;100893.09;6127870;23;20020;-70
2023/07/31 02:30:57;;;;;;;15.50;6.78;;;;;;;15.12;100.00;100897.53;6129232;23;20105;-70
2023/07/31 02:33:23;;;;;;;19.02;7.28;;;;;;;15.13;100.00;100894.84;6129224;23;20010;-70
2023/07/31 02:35:48;;;;;;;17.48;7.10;;;;;;;15.08;100.00;100888.81;6129973;23;20431;-70
2023/07/31 02:38:14;;;;;;;15.73;7.05;;;;;;;15.08;100.00;100894.09;6130146;23;20406;-70
2023/07/31 02:40:41;;;;;;;17.40;7.18;;;;;;;15.06;100.00;100893.28;6105612;23;20096;-70
2023/07/31 02:43:07;;;;;;;18.83;7.55;;;;;;;15.05;100.00;100889.78;6129901;23;20033;-70
2023/07/31 02:45:32;;;;;;;13.88;6.82;;;;;;;15.04;100.00;100887.19;6104773;23;20020;-70
2023/07/31 02:47:58;;;;;;;13.75;6.70;;;;;;;15.06;100.00;100890.66;6153197;23;20005;-70
2023/07/31 02:50:23;;;;;;;15.07;7.18;;;;;;;15.02;100.00;100884.59;6129812;23;20113;-70
2023/07/31 02:52:49;;;;;;;15.88;7.78;;;;;;;15.05;100.00;100881.00;6129550;23;20009;-70
2023/07/31 02:55:14;;;;;;;14.70;7.20;;;;;;;15.02;100.00;100879.31;6129593;23;20356;-70
2023/07/31 02:57:41;;;;;;;14.98;7.07;;;;;;;14.99;100.00;100879.41;6155728;23;20032;-70
2023/07/31 03:00:07;;;;;;;18.95;7.65;;;;;;;15.00;100.00;100880.28;6153895;23;20029;-70
2023/07/31 03:02:32;;;;;;;16.13;7.25;;;;;;;14.99;100.00;100879.41;6152411;23;20610;-70
2023/07/31 03:04:58;;;;;;;15.00;7.25;;;;;;;14.98;100.00;100879.47;6104637;23;20363;-70
2023/07/31 03:07:23;;;;;;;15.77;7.60;;;;;;;14.97;100.00;100880.34;6128952;23;20340;-70
2023/07/31 03:09:49;;;;;;;20.10;7.97;;;;;;;14.97;100.00;100881.25;6105800;23;20048;-70
2023/07/31 03:12:14;;;;;;;14.98;7.35;;;;;;;14.97;100.00;100877.72;6104733;23;20017;-69
2023/07/31 03:14:40;;;;;;;15.30;7.90;;;;;;;14.97;100.00;100873.31;6104067;23;20002;-69
2023/07/31 03:17:08;;;;;;;17.08;6.93;;;;;;;14.97;100.00;100878.59;6151883;23;20048;-69
2023/07/31 03:19:33;;;;;;;16.13;7.18;;;;;;;14.98;100.00;100876.81;6130126;23;20016;-69
2023/07/31 03:21:59;;;;;;;19.83;7.32;;;;;;;14.98;100.00;100882.09;6104395;23;20014;-69
2023/07/31 03:24:25;;;;;;;15.10;7.47;;;;;;;15.00;100.00;100881.16;6127199;23;20079;-68
2023/07/31 03:26:51;;;;;;;19.08;7.85;;;;;;;14.99;100.00;100868.00;6128994;23;20016;-68
2023/07/31 03:29:16;;;;;;;21.65;7.43;;;;;;;15.03;100.00;100869.66;6104205;23;20013;-69
2023/07/31 03:31:42;;;;;;;17.60;6.93;;;;;;;15.04;100.00;100871.34;6153246;23;20332;-69
2023/07/31 03:34:07;;;;;;;15.85;7.35;;;;;;;15.05;100.00;100867.81;6151931;23;20110;-69
2023/07/31 03:36:33;;;;;;;17.40;7.40;;;;;;;15.03;100.00;100865.22;6105215;23;20017;-69
2023/07/31 03:38:58;;;;;;;16.80;7.38;;;;;;;15.01;100.00;100855.59;6153804;23;20313;-69
2023/07/31 03:41:24;;;;;;;14.80;7.13;;;;;;;15.05;100.00;100862.53;6104423;23;20009;-69
2023/07/31 03:43:51;;;;;;;16.05;7.25;;;;;;;15.07;100.00;100855.44;6153698;23;20443;-69
2023/07/31 03:46:17;;;;;;;15.48;7.15;;;;;;;15.04;100.00;100845.84;6128909;23;20009;-69
2023/07/31 03:48:43;;;;;;;18.83;7.72;;;;;;;15.06;100.00;100851.06;6127990;23;20083;-69
2023/07/31 03:51:08;;;;;;;16.50;6.78;;;;;;;15.09;100.00;100844.84;6154059;23;20067;-69
2023/07/31 03:53:34;;;;;;;14.95;6.78;;;;;;;15.10;100.00;100841.28;6103524;23;20037;-69
2023/07/31 03:55:59;;;;;;;13.20;6.60;;;;;;;15.09;100.00;100832.50;6128227;23;20317;-69
2023/07/31 03:58:25;;;;;;;16.02;6.97;;;;;;;15.09;100.00;100827.22;6128252;23;20336;-69
2023/07/31 04:00:50;;;;;;;15.32;6.82;;;;;;;15.14;100.00;100832.34;6151719;23;20025;-69
2023/07/31 04:03:15;;;;;;;13.90;6.10;;;;;;;15.15;100.00;100837.56;6124372;23;20457;-69
2023/07/31 04:05:41;;;;;;;15.55;6.65;;;;;;;15.16;100.00;100831.41;6125728;23;20010;-69
2023/07/31 04:08:07;;;;;;;18.60;6.43;;;;;;;15.20;100.00;100829.50;6152298;23;20005;-69
2023/07/31 04:10:33;;;;;;;12.98;6.50;;;;;;;15.21;100.00;100831.25;6104633;23;20348;-69
2023/07/31 04:13:00;;;;;;;17.88;6.78;;;;;;;15.24;100.00;100829.38;6104174;23;20018;-69
2023/07/31 04:15:25;;;;;;;13.52;6.60;;;;;;;15.27;100.00;100824.91;6152515;23;20076;-69
2023/07/31 04:17:51;;;;;;;14.55;6.90;;;;;;;15.27;100.00;100830.19;6103306;23;20321;-69
2023/07/31 04:20:17;;;;;;;14.70;6.60;;;;;;;15.29;100.00;100825.75;6153452;23;20009;-70
2023/07/31 04:22:42;;;;;;;18.17;6.60;;;;;;;15.31;100.00;100822.13;6153697;23;20081;-70
2023/07/31 04:25:08;;;;;;;16.80;6.68;;;;;;;15.31;100.00;100826.56;6128681;23;20005;-70
2023/07/31 04:27:33;;;;;;;18.08;7.22;;;;;;;15.32;100.00;100823.00;6127723;23;20016;-69
2023/07/31 04:29:59;;;;;;;14.77;6.53;;;;;;;15.35;100.00;100818.47;6152957;23;20005;-69
2023/07/31 04:32:24;;;;;;;15.82;6.50;;;;;;;15.35;100.00;100812.34;6101635;23;20021;-69
2023/07/31 04:34:50;;;;;;;16.75;7.07;;;;;;;15.39;100.00;100819.25;6152349;23;20424;-70
2023/07/31 04:37:15;;;;;;;15.88;6.82;;;;;;;15.39;100.00;100819.25;6101195;23;20025;-69
2023/07/31 04:39:41;;;;;;;18.42;6.80;;;;;;;15.41;100.00;100818.31;6124766;23;20009;-69
2023/07/31 04:42:06;;;;;;;15.10;6.60;;;;;;;15.44;100.00;100811.19;6152087;23;20075;-68
2023/07/31 04:44:31;;;;;;;16.05;6.35;;;;;;;15.45;100.00;100816.41;6126478;23;20041;-69
2023/07/31 04:46:57;;;;;;;15.98;6.80;;;;;;;15.46;100.00;100810.22;6125773;23;20005;-69
2023/07/31 04:49:23;;;;;;;14.13;6.38;;;;;;;15.49;100.00;100804.84;6126315;23;20088;-69
2023/07/31 04:51:48;;;;;;;15.35;5.93;;;;;;;15.49;100.00;100803.97;6127771;23;20433;-69
2023/07/31 04:54:14;;;;;;;11.80;5.65;;;;;;;15.49;100.00;100807.47;6103310;23;20021;-69
2023/07/31 04:56:41;;;;;;;13.35;6.25;;;;;;;15.49;100.00;100796.91;6103110;23;20451;-69
2023/07/31 04:59:06;;;;;;;11.95;6.07;;;;;;;15.50;100.00;100790.72;6102710;23;20076;-69
2023/07/31 05:01:32;;;;;;;12.73;5.85;;;;;;;15.54;100.00;100784.44;6152669;23;20332;-69
2023/07/31 05:03:57;;;;;;;15.23;6.25;;;;;;;15.56;100.00;100782.59;6102965;23;20017;-69
2023/07/31 05:06:22;;;;;;;13.40;6.55;;;;;;;15.58;100.00;100782.53;6128451;23;20432;-68
2023/07/31 05:08:48;;;;;;;18.00;6.53;;;;;;;15.58;100.00;100790.47;6126658;23;20009;-69
2023/07/31 05:11:13;;;;;;;15.25;6.90;;;;;;;15.61;100.00;100784.22;6103828;23;20017;-69
2023/07/31 05:13:39;;;;;;;16.25;6.50;;;;;;;15.64;100.00;100786.75;6127268;23;20041;-69
2023/07/31 05:16:04;;;;;;;13.50;6.50;;;;;;;15.64;100.00;100779.69;6128088;23;20070;-69
2023/07/31 05:18:30;;;;;;;14.20;6.32;;;;;;;15.66;100.00;100775.22;6126529;23;20017;-69
2023/07/31 05:20:55;;;;;;;14.95;6.85;;;;;;;15.66;100.00;100779.63;6103324;23;20090;-69
2023/07/31 05:23:20;;;;;;;14.27;6.88;;;;;;;15.64;100.00;100776.19;6103055;23;20010;-69
2023/07/31 05:25:46;;;;;;;17.08;7.07;;;;;;;15.63;100.00;100758.59;6125004;23;20021;-68
2023/07/31 05:28:13;;;;;;;11.88;5.80;;;;;;;15.56;100.00;100758.81;6124692;23;20075;-68
2023/07/31 05:30:39;;;;;;;13.98;6.80;;;;;;;15.64;100.00;100771.75;6121126;23;21509;-68
2023/07/31 05:36:09;;;;;;;15.25;7.00;;;;;;;15.62;100.00;100772.75;6199037;23;20025;-67
2023/07/31 05:38:34;;;;;;;14.48;6.95;;;;;;;15.59;100.00;100764.00;6142093;23;20051;-67
2023/07/31 05:41:00;;;;;;;13.50;6.38;;;;;;;15.63;100.00;100763.88;6098784;23;20033;-68
2023/07/31 05:43:25;;;;;;;11.25;6.25;;;;;;;15.57;100.00;100751.75;6134680;23;20020;-68
2023/07/31 06:02:03;;;;;;;9.65;5.28;;;;;;;15.45;100.00;100739.81;6178039;23;20017;-69
2023/07/31 06:31:53;;;;;;;5.43;3.50;;;;;;;15.42;100.00;100724.09;6185188;23;20029;-69
2023/07/31 06:34:18;;;;;;;9.38;4.03;;;;;;;15.42;100.00;100719.66;6133954;23;20121;-69
2023/07/31 06:40:08;;;;;;;5.95;3.95;;;;;;;15.45;100.00;100724.00;6184983;23;20012;-68
2023/07/31 06:42:35;;;;;;;5.57;3.75;;;;;;;15.49;100.00;100714.19;6133957;23;20016;-69
2023/07/31 06:45:01;;;;;;;6.32;3.83;;;;;;;15.48;100.00;100710.66;6157906;23;20009;-69
2023/07/31 06:47:26;;;;;;;5.28;4.35;;;;;;;15.50;100.00;100707.97;6156968;23;20465;-70
2023/07/31 06:49:52;;;;;;;6.88;4.63;;;;;;;15.48;100.00;100702.75;6133660;23;20013;-71
2023/07/31 06:52:17;;;;;;;5.88;4.25;;;;;;;15.52;100.00;100704.38;6157313;23;20031;-70
2023/07/31 06:54:42;;;;;;;5.20;4.00;;;;;;;15.54;100.00;100694.63;6132304;23;20013;-71
2023/07/31 06:57:08;;;;;;;5.95;4.38;;;;;;;15.58;100.00;100695.38;6157542;23;20092;-71
2023/07/31 06:59:33;;;;;;;5.30;4.10;;;;;;;15.57;100.00;100691.88;6133627;23;20441;-71
2023/07/31 07:01:59;;;;;;;6.32;4.20;;;;;;;15.58;100.00;100688.31;6156577;23;20351;-71
2023/07/31 07:04:25;;;;;;;6.88;4.43;;;;;;;15.57;100.00;100691.88;6182802;23;20328;-71
2023/07/31 07:06:50;;;;;;;5.97;4.10;;;;;;;15.58;100.00;100693.59;6157925;23;20009;-71
2023/07/31 07:09:16;;;;;;;6.20;4.30;;;;;;;15.56;100.00;100692.78;6133073;23;20024;-71
2023/07/31 07:11:41;;;;;;;5.00;3.80;;;;;;;15.61;100.00;100686.50;6157483;23;20017;-71
2023/07/31 07:14:10;;;;;;;6.78;3.80;;;;;;;15.59;100.00;100689.19;6183836;23;20013;-71
2023/07/31 07:16:35;;;;;;;6.65;3.92;;;;;;;15.64;100.00;100683.75;6158174;23;20442;-71
2023/07/31 07:19:01;;;;;;;6.65;4.50;;;;;;;15.66;100.00;100674.84;6156880;23;20043;-71
2023/07/31 07:21:26;;;;;;;4.65;4.13;;;;;;;15.68;100.00;100677.44;6135151;23;20091;-71
2023/07/31 07:23:51;;;;;;;4.68;3.70;;;;;;;15.72;100.00;100673.78;6134246;23;20016;-70
2023/07/31 07:26:17;;;;;;;5.55;3.97;;;;;;;15.73;100.00;100679.00;6135046;23;20009;-70
2023/07/31 07:28:43;;;;;;;5.20;3.72;;;;;;;15.74;100.00;100679.84;6134692;23;20013;-71
2023/07/31 07:31:08;;;;;;;5.43;3.50;;;;;;;15.79;100.00;100669.13;6110112;23;20052;-70
2023/07/31 07:33:33;;;;;;;4.30;3.65;;;;;;;15.79;100.00;100670.03;6184581;23;20012;-70
2023/07/31 07:36:02;;;;;;;5.60;3.47;;;;;;;15.82;100.00;100669.91;6134963;23;20012;-70
2023/07/31 07:38:28;;;;;;;4.63;3.63;;;;;;;15.86;100.00;100674.16;6159340;23;20075;-70
2023/07/31 07:40:53;;;;;;;4.78;3.03;;;;;;;15.83;100.00;100676.91;6135032;23;20013;-70
2023/07/31 07:43:19;;;;;;;4.22;3.33;;;;;;;15.82;100.00;100674.34;6134543;23;20013;-71
2023/07/31 07:45:44;;;;;;;4.60;3.28;;;;;;;15.83;100.00;100678.69;6159051;23;20004;-70
2023/07/31 07:48:10;;;;;;;4.43;3.40;;;;;;;15.81;100.00;100678.75;6134053;23;20009;-70
2023/07/31 07:50:36;;;;;;;4.63;3.53;;;;;;;15.81;100.00;100677.88;6159350;23;20453;-70
2023/07/31 07:53:02;;;;;;;5.20;3.72;;;;;;;15.79;100.00;100682.34;6135084;23;20342;-70
2023/07/31 07:55:27;;;;;;;5.30;3.65;;;;;;;15.80;100.00;100681.44;6158951;23;20081;-70
2023/07/31 07:57:53;;;;;;;6.03;4.47;;;;;;;15.80;100.00;100674.38;6134918;23;20446;-70
2023/07/31 08:00:18;;;;;;;5.82;4.40;;;;;;;15.79;100.00;100671.78;6134516;23;20040;-70
2023/07/31 08:02:44;;;;;;;6.43;4.30;;;;;;;15.81;100.00;100681.38;6157838;23;20009;-71
2023/07/31 08:05:09;;;;;;;8.15;5.20;;;;;;;15.86;100.00;100671.53;6156248;23;20120;-70
2023/07/31 08:07:35;;;;;;;8.55;5.15;;;;;;;15.92;100.00;100670.44;6134545;23;20013;-71
2023/07/31 08:10:00;;;;;;;6.63;4.63;;;;;;;15.89;100.00;100666.13;6159393;23;20040;-70
2023/07/31 08:12:26;;;;;;;7.22;5.13;;;;;;;15.92;100.00;100670.44;6134367;23;20013;-70
2023/07/31 08:14:51;;;;;;;8.82;5.30;;;;;;;15.89;100.00;100665.28;6185194;23;20422;-70
2023/07/31 08:17:17;;;;;;;8.13;5.60;;;;;;;15.88;100.00;100668.81;6132524;23;20387;-70
2023/07/31 08:19:43;;;;;;;7.45;4.82;;;;;;;15.84;100.00;100669.84;6157689;23;20012;-70
2023/07/31 08:22:09;;;;;;;8.38;5.45;;;;;;;15.86;100.00;100665.34;6133135;23;20005;-70
2023/07/31 08:24:34;;;;;;;6.40;4.75;;;;;;;15.88;100.00;100663.53;6134518;23;20327;-70
2023/07/31 08:27:00;;;;;;;10.73;6.15;;;;;;;15.91;100.00;100666.06;6134105;23;20005;-71
2023/07/31 08:29:25;;;;;;;8.18;5.47;;;;;;;15.93;100.00;100673.03;6132875;23;20021;-70
2023/07/31 08:31:51;;;;;;;7.85;5.60;;;;;;;15.97;100.00;100662.34;6133819;23;20095;-70
2023/07/31 08:34:16;;;;;;;7.90;5.13;;;;;;;15.96;100.00;100665.88;6157525;23;20439;-71
2023/07/31 08:36:42;;;;;;;6.60;5.15;;;;;;;15.93;100.00;100666.84;6158998;23;20445;-71
2023/07/31 08:39:07;;;;;;;8.77;5.20;;;;;;;15.88;100.00;100651.19;6134002;23;20423;-70
2023/07/31 08:41:39;;;;;;;8.52;5.47;;;;;;;15.99;100.00;100668.41;6134001;23;20020;-71
2023/07/31 08:44:04;;;;;;;7.72;5.53;;;;;;;15.98;100.00;100653.50;6158604;23;20493;-70
2023/07/31 08:46:31;;;;;;;8.38;6.03;;;;;;;15.98;100.00;100662.28;6158171;23;20013;-70
2023/07/31 08:48:58;;;;;;;7.07;5.10;;;;;;;15.98;100.00;100664.91;6133410;23;20043;-70
2023/07/31 08:51:23;;;;;;;7.05;5.55;;;;;;;15.96;100.00;100664.13;6134251;23;20382;-70
2023/07/31 08:53:49;;;;;;;6.40;4.97;;;;;;;15.99;100.00;100669.28;6157774;23;20075;-70
2023/07/31 08:56:16;;;;;;;7.43;5.38;;;;;;;15.98;100.00;100669.34;6158778;23;20020;-70
2023/07/31 08:58:43;;;;;;;8.55;5.20;;;;;;;16.02;100.00;100663.00;6158116;23;20082;-71
2023/07/31 09:01:10;;;;;;;9.07;5.60;;;;;;;15.95;100.00;100659.75;6134051;23;20012;-70
2023/07/31 09:03:37;;;;;;;8.50;5.90;;;;;;;16.00;100.00;100659.56;6132891;23;20013;-70
2023/07/31 09:06:06;;;;;;;6.40;5.35;;;;;;;15.97;100.00;100667.63;6158767;23;20012;-70
2023/07/31 09:08:32;;;;;;;9.27;6.03;;;;;;;15.96;100.00;100657.97;6158117;23;20495;-71
2023/07/31 09:11:05;;;;;;;6.70;5.97;;;;;;;15.97;100.00;100667.63;6108948;23;20041;-71
2023/07/31 09:13:31;;;;;;;10.55;5.78;;;;;;;16.01;100.00;100663.94;6158486;23;20009;-70
2023/07/31 09:15:57;;;;;;;8.15;6.05;;;;;;;15.99;100.00;100665.75;6157814;23;20148;-70
2023/07/31 09:18:22;;;;;;;10.00;6.22;;;;;;;16.05;100.00;100649.69;6157884;23;20067;-70
2023/07/31 09:21:03;;;;;;;10.57;6.68;;;;;;;16.05;100.00;100666.41;6133950;23;20439;-70
2023/07/31 09:23:51;;;;;;;11.00;6.63;;;;;;;16.08;100.00;100657.50;6133542;23;20486;-69
2023/07/31 09:26:32;;;;;;;8.55;6.35;;;;;;;16.12;100.00;100651.19;6134921;23;20457;-69
2023/07/31 09:28:59;;;;;;;9.38;6.80;;;;;;;16.15;100.00;100661.66;6158043;23;20311;-69
2023/07/31 09:31:44;;;;;;;10.07;6.38;;;;;;;16.18;100.00;100650.94;6157669;23;20124;-69
2023/07/31 09:34:16;;;;;;;9.45;6.38;;;;;;;16.25;100.00;100641.00;6156857;23;20013;-69
2023/07/31 09:36:43;;;;;;;9.98;6.70;;;;;;;16.31;100.00;100645.19;6159550;23;20335;-69
2023/07/31 09:39:11;;;;;;;10.25;6.47;;;;;;;16.33;100.00;100644.19;6158256;23;20060;-69
2023/07/31 09:41:38;;;;;;;9.80;6.05;;;;;;;16.36;100.00;100644.06;6157037;23;20100;-70
2023/07/31 09:44:03;;;;;;;10.10;6.43;;;;;;;16.41;100.00;100630.69;6132812;23;20103;-69
2023/07/31 09:46:30;;;;;;;9.30;6.13;;;;;;;16.45;100.00;100633.16;6133176;23;20037;-69
2023/07/31 09:49:07;;;;;;;10.95;5.90;;;;;;;16.48;100.00;100637.47;6132085;23;20016;-69
2023/07/31 09:51:38;;;;;;;11.35;6.20;;;;;;;16.50;100.00;100635.59;6133767;23;20013;-69
2023/07/31 09:54:04;;;;;;;10.23;5.95;;;;;;;16.60;100.00;100642.25;6135000;23;20043;-69
2023/07/31 09:56:31;;;;;;;10.80;5.35;;;;;;;16.62;100.00;100640.41;6133337;23;20396;-69
2023/07/31 09:58:57;;;;;;;9.50;5.68;;;;;;;16.63;100.00;100642.13;6133990;23;20020;-69
2023/07/31 10:01:22;;;;;;;9.70;6.00;;;;;;;16.65;100.00;100639.44;6109442;23;20551;-69
2023/07/31 10:03:48;;;;;;;9.23;5.60;;;;;;;16.70;100.00;100645.38;6133519;23;20039;-69
2023/07/31 10:06:18;;;;;;;9.75;5.82;;;;;;;16.76;100.00;100644.28;6133596;23;20328;-69
2023/07/31 10:08:48;;;;;;;8.80;6.05;;;;;;;16.82;100.00;100637.88;6158812;23;20079;-69
2023/07/31 10:11:14;;;;;;;10.93;5.93;;;;;;;16.82;100.00;100629.94;6133683;23;20005;-68
2023/07/31 10:13:41;;;;;;;10.70;6.00;;;;;;;16.78;100.00;100635.38;6109226;23;20016;-69
2023/07/31 10:16:07;;;;;;;8.30;5.22;;;;;;;16.77;100.00;100633.63;6133057;23;20020;-69
2023/07/31 10:18:35;;;;;;;9.40;5.20;;;;;;;16.78;100.00;100631.88;6133181;23;20009;-69
2023/07/31 10:21:01;;;;;;;9.60;5.68;;;;;;;16.79;100.00;100630.91;6157825;23;20339;-69
2023/07/31 10:23:27;;;;;;;8.68;5.47;;;;;;;16.83;100.00;100627.22;6134040;23;20021;-69
2023/07/31 10:25:58;;;;;;;10.10;5.30;;;;;;;16.96;100.00;100630.25;6133576;23;20008;-69
2023/07/31 10:28:26;;;;;;;6.97;5.50;;;;;;;17.13;100.00;100629.56;6158119;23;20005;-68
2023/07/31 10:30:52;;;;;;;10.48;5.63;;;;;;;17.24;100.00;100627.31;6157641;23;20051;-69
2023/07/31 10:33:20;;;;;;;9.90;4.95;;;;;;;17.21;100.00;100626.56;6157224;23;20013;-69
2023/07/31 10:35:47;;;;;;;6.53;4.63;;;;;;;17.26;100.00;100624.59;6133659;23;20017;-69
2023/07/31 10:38:13;;;;;;;10.00;5.38;;;;;;;17.25;100.00;100631.66;6157895;23;20013;-69
2023/07/31 10:40:39;;;;;;;8.63;5.55;;;;;;;17.28;100.00;100628.03;6132862;23;20016;-69
2023/07/31 10:43:05;;;;;;;9.00;4.75;;;;;;;17.31;100.00;100620.81;6157681;23;20009;-69
2023/07/31 10:45:36;;;;;;;8.02;4.90;;;;;;;17.40;100.00;100621.34;6183456;23;20457;-69
2023/07/31 10:48:03;;;;;;;7.45;4.60;;;;;;;17.42;100.00;100622.97;6157290;23;20367;-69
2023/07/31 10:50:32;;;;;;;9.13;4.57;;;;;;;17.45;100.00;100625.50;6133136;23;20017;-69
2023/07/31 10:53:00;;;;;;;7.68;4.72;;;;;;;17.51;100.00;100629.66;6159543;23;20020;-69
2023/07/31 10:55:25;;;;;;;8.18;4.45;;;;;;;17.53;100.00;100622.53;6111634;23;20005;-70
2023/07/31 10:57:51;;;;;;;8.02;4.75;;;;;;;17.55;100.00;100625.09;6158875;23;20009;-69
2023/07/31 11:00:41;;;;;;;7.90;4.22;;;;;;;17.61;100.00;100627.47;6134572;23;20422;-69
2023/07/31 11:03:16;;;;;;;7.40;4.35;;;;;;;17.56;100.00;100627.69;6140239;23;20036;-68
2023/07/31 11:05:41;;;;;;;7.10;4.18;;;;;;;17.51;100.00;100611.13;6159759;23;20004;-69
2023/07/31 11:08:14;;;;;;;6.88;4.00;;;;;;;17.52;99.90;100615.50;6159777;23;20009;-69
2023/07/31 11:10:42;;;;;;;8.77;4.53;;;;;;;17.53;100.00;100622.53;6136047;23;20009;-69
2023/07/31 11:13:08;;;;;;;7.78;4.68;;;;;;;17.56;100.00;100624.19;6160020;23;20031;-69
2023/07/31 11:15:33;;;;;;;7.85;4.20;;;;;;;17.62;100.00;100622.09;6134467;23;20010;-69
2023/07/31 11:18:03;;;;;;;7.65;4.40;;;;;;;17.70;100.00;100608.53;6134297;23;20013;-69
2023/07/31 11:20:33;;;;;;;7.53;4.17;;;;;;;17.83;99.45;100612.34;6159513;23;20083;-69
2023/07/31 11:23:03;;;;;;;7.85;4.68;;;;;;;17.93;97.58;100620.75;6135109;23;20021;-69
2023/07/31 11:25:32;;;;;;;9.45;4.78;;;;;;;18.08;97.54;100619.19;6134940;23;20033;-69
2023/07/31 11:28:06;;;;;;;8.17;4.60;;;;;;;18.14;97.58;100618.03;6159726;23;20408;-69
2023/07/31 11:30:35;;;;;;;8.23;4.47;;;;;;;18.10;95.87;100612.03;6134412;23;20268;-69
2023/07/31 11:33:05;;;;;;;8.38;4.15;;;;;;;18.12;96.54;100620.75;6134083;23;20109;-69
2023/07/31 11:35:36;;;;;;;6.30;4.55;;;;;;;18.12;96.83;100614.59;6134733;23;20019;-69
2023/07/31 11:38:02;;;;;;;7.13;4.68;;;;;;;18.05;94.54;100600.78;6185920;23;20056;-69
2023/07/31 11:40:31;;;;;;;6.68;4.20;;;;;;;18.02;95.31;100613.31;6185919;23;20076;-69
2023/07/31 11:42:58;;;;;;;6.93;4.28;;;;;;;18.06;96.93;100604.25;6159292;23;20320;-69
2023/07/31 11:45:27;;;;;;;6.32;4.50;;;;;;;18.10;95.22;100605.84;6158497;23;20008;-70
2023/07/31 11:47:54;;;;;;;7.22;4.20;;;;;;;18.26;96.69;100604.22;6158733;23;20047;-69
2023/07/31 11:50:20;;;;;;;6.10;4.45;;;;;;;18.37;95.51;100597.53;6159528;23;20009;-69
2023/07/31 11:52:48;;;;;;;5.88;3.72;;;;;;;18.45;94.40;100595.38;6135058;23;20452;-69
2023/07/31 11:55:16;;;;;;;6.43;4.03;;;;;;;18.42;93.88;100595.50;6134808;23;20012;-69
2023/07/31 11:57:45;;;;;;;6.22;3.65;;;;;;;18.40;93.45;100592.06;6134347;23;20079;-69
2023/07/31 12:00:13;;;;;;;5.78;4.13;;;;;;;18.42;95.03;100595.50;6158666;23;20408;-68